This is the latest recevied weather packets stored in our database for station/object N2WH. If no packets are shown the sender has not sent any weather packets the latest 10 day(s).
| Time | Temp. | Humidity | Pressure | Rain* | Wind** | Luminosity | Snow |
|---|---|---|---|---|---|---|---|
| 1777914310 | 20.56° C | 37% | 1012.4 hPa | 0 mm | - | 718 W/m² | - |
| 1777914009 | 21.11° C | 35% | 1012.3 hPa | 0 mm | - | 730 W/m² | - |
| 1777913704 | 21.11° C | 38% | 1012.3 hPa | 0 mm | - | 734 W/m² | - |
| 1777913401 | 20.56° C | 36% | 1012.5 hPa | 0 mm | - | 732 W/m² | - |
| 1777913098 | 20.56° C | 37% | 1012.5 hPa | 0 mm | - | 691 W/m² | - |
| 1777912794 | 20.56° C | 40% | 1012.5 hPa | 0 mm | - | 714 W/m² | - |
| 1777912490 | 20.56° C | 36% | 1012.6 hPa | 0 mm | - | 704 W/m² | - |
| 1777912187 | 20.56° C | 37% | 1012.9 hPa | 0 mm | - | 682 W/m² | - |
| 1777911883 | 20° C | 38% | 1012.8 hPa | 0 mm | - | 703 W/m² | - |
| 1777911580 | 20° C | 37% | 1012.6 hPa | 0 mm | - | 724 W/m² | - |
| 1777911275 | 19.44° C | 37% | 1012.6 hPa | 0 mm | - | 751 W/m² | - |
| 1777910973 | 19.44° C | 37% | 1012.8 hPa | 0 mm | - | 735 W/m² | - |
| 1777910671 | 20.56° C | 36% | 1012.9 hPa | 0 mm | - | 762 W/m² | - |
| 1777910367 | 20° C | 38% | 1012.9 hPa | 0 mm | - | 773 W/m² | - |
| 1777910064 | 19.44° C | 39% | 1013 hPa | 0 mm | - | 768 W/m² | - |
| 1777909761 | 20° C | 38% | 1013.1 hPa | 0 mm | - | 793 W/m² | - |
| 1777909458 | 20° C | 38% | 1013.2 hPa | 0 mm | - | 828 W/m² | - |
| 1777909156 | 20.56° C | 36% | 1013.3 hPa | 0 mm | - | 790 W/m² | - |
| 1777908854 | 20° C | 37% | 1013.4 hPa | 0 mm | - | 818 W/m² | - |
| 1777908550 | 19.44° C | 38% | 1013.2 hPa | 0 mm | - | 821 W/m² | - |
| 1777908247 | 18.89° C | 38% | 1013.4 hPa | 0 mm | - | 832 W/m² | - |
| 1777907944 | 18.89° C | 39% | 1013.5 hPa | 0 mm | - | 728 W/m² | - |
| 1777907639 | 18.89° C | 39% | 1013.4 hPa | 0 mm | - | 729 W/m² | - |
| 1777907334 | 19.44° C | 40% | 1013.7 hPa | 0 mm | - | 688 W/m² | - |
| 1777907031 | 18.89° C | 41% | 1013.3 hPa | 0 mm | - | 787 W/m² | - |
* Rain latest hour (hover to see other rain measurements)
** Current wind speed in m/s (hover to see current wind gust speed)